createdAt,value
2023-01-06T00:00:44.097Z,0.70
2023-01-06T00:01:44.022Z,0.80
2023-01-06T00:02:44.045Z,0.70
2023-01-06T00:03:44.053Z,0.70
2023-01-06T00:04:44.129Z,0.90
2023-01-06T00:05:44.074Z,0.70
2023-01-06T00:06:44.089Z,0.70
2023-01-06T00:07:44.093Z,0.70
2023-01-06T00:08:44.116Z,0.60
2023-01-06T00:09:44.134Z,0.60
2023-01-06T00:10:44.135Z,0.70
2023-01-06T00:11:44.273Z,0.80
2023-01-06T00:12:44.165Z,0.50
2023-01-06T00:13:44.192Z,0.60
2023-01-06T00:14:44.201Z,0.70
2023-01-06T00:15:44.212Z,0.70
2023-01-06T00:16:44.234Z,0.80
2023-01-06T00:17:44.646Z,0.60
2023-01-06T00:18:44.255Z,0.70
2023-01-06T00:19:44.273Z,0.70
2023-01-06T00:20:44.276Z,0.80
2023-01-06T00:21:44.298Z,0.80
2023-01-06T00:22:44.317Z,0.60
2023-01-06T00:23:44.339Z,0.80
2023-01-06T00:24:44.335Z,0.70
2023-01-06T00:25:44.356Z,0.90
2023-01-06T00:26:44.363Z,0.70
2023-01-06T00:27:44.507Z,0.80
2023-01-06T00:28:44.390Z,0.80
2023-01-06T00:29:44.411Z,0.60
2023-01-06T00:30:44.511Z,0.90
2023-01-06T00:31:44.439Z,0.80
2023-01-06T00:32:44.449Z,0.80
2023-01-06T00:33:44.457Z,0.80
2023-01-06T00:34:44.475Z,0.60
2023-01-06T00:35:44.496Z,0.70
2023-01-06T00:36:44.510Z,0.70
2023-01-06T00:37:44.519Z,0.70
2023-01-06T00:38:44.530Z,0.70
2023-01-06T00:39:44.546Z,0.70
2023-01-06T00:40:44.565Z,0.60
2023-01-06T00:41:44.575Z,0.70
2023-01-06T00:42:44.594Z,0.70
2023-01-06T00:43:44.715Z,0.70
2023-01-06T00:44:44.624Z,0.80
2023-01-06T00:45:44.639Z,0.70
2023-01-06T00:46:44.649Z,0.80
2023-01-06T00:47:44.657Z,0.90
2023-01-06T00:48:56.587Z,0.80
2023-01-06T00:49:44.693Z,0.70
2023-01-06T00:50:44.706Z,0.80
2023-01-06T00:51:44.719Z,0.70
2023-01-06T00:52:44.731Z,0.70
2023-01-06T00:53:44.750Z,0.70
2023-01-06T00:54:44.763Z,0.60
2023-01-06T00:55:44.777Z,0.80
2023-01-06T00:56:44.790Z,0.80
2023-01-06T00:57:44.802Z,0.70
2023-01-06T00:58:44.810Z,0.80
2023-01-06T00:59:44.944Z,0.70
2023-01-06T01:00:44.839Z,0.70
2023-01-06T01:01:44.954Z,0.60
2023-01-06T01:02:44.941Z,0.90
2023-01-06T01:03:44.896Z,0.70
2023-01-06T01:04:44.904Z,0.90
2023-01-06T01:05:44.915Z,0.60
2023-01-06T01:06:44.937Z,0.70
2023-01-06T01:07:44.947Z,0.80
2023-01-06T01:08:44.961Z,0.70
2023-01-06T01:09:44.973Z,0.80
2023-01-06T01:10:44.989Z,0.70
2023-01-06T01:11:45.004Z,0.70
2023-01-06T01:12:45.030Z,0.80
2023-01-06T01:13:45.029Z,0.70
2023-01-06T01:14:45.046Z,0.60
2023-01-06T01:15:45.077Z,0.70
2023-01-06T01:16:45.074Z,0.70
2023-01-06T01:17:45.076Z,0.70
2023-01-06T01:18:45.100Z,1.00
2023-01-06T01:19:45.110Z,0.80
2023-01-06T01:20:45.129Z,0.80
2023-01-06T01:21:45.148Z,0.70
2023-01-06T01:22:45.148Z,0.60
2023-01-06T01:23:45.175Z,0.80
2023-01-06T01:24:45.176Z,0.70
2023-01-06T01:25:45.190Z,0.70
2023-01-06T01:26:45.213Z,0.60
2023-01-06T01:27:45.227Z,0.70
2023-01-06T01:28:45.241Z,0.80
2023-01-06T01:29:45.249Z,0.70
2023-01-06T01:30:45.306Z,0.70
2023-01-06T01:31:45.414Z,0.80
2023-01-06T01:32:45.289Z,0.80
2023-01-06T01:33:45.306Z,0.70
2023-01-06T01:34:45.317Z,0.80
2023-01-06T01:35:45.337Z,0.70
2023-01-06T01:36:45.370Z,0.70
2023-01-06T01:37:45.367Z,0.70
2023-01-06T01:38:45.374Z,0.70
2023-01-06T01:39:45.392Z,0.80
2023-01-06T01:40:45.411Z,0.80
2023-01-06T01:41:45.418Z,0.70
2023-01-06T01:42:45.443Z,0.80
2023-01-06T01:43:45.462Z,0.70
2023-01-06T01:44:45.455Z,0.80
2023-01-06T01:45:45.479Z,0.80
2023-01-06T01:46:45.493Z,0.80
2023-01-06T01:47:45.612Z,0.80
2023-01-06T01:48:45.522Z,0.90
2023-01-06T01:49:45.528Z,0.80
2023-01-06T01:50:45.541Z,0.70
2023-01-06T01:51:45.562Z,0.60
2023-01-06T01:52:45.570Z,0.80
2023-01-06T01:53:45.590Z,0.70
2023-01-06T01:54:45.599Z,0.90
2023-01-06T01:55:45.622Z,0.80
2023-01-06T01:56:45.633Z,0.90
2023-01-06T01:57:45.647Z,0.70
2023-01-06T01:58:45.667Z,0.80
2023-01-06T01:59:45.676Z,0.90
2023-01-06T02:00:45.681Z,0.70
2023-01-06T02:01:45.787Z,1.10
2023-01-06T02:02:45.715Z,0.80
2023-01-06T02:03:45.842Z,0.90
2023-01-06T02:04:45.755Z,0.90
2023-01-06T02:05:45.759Z,0.80
2023-01-06T02:06:45.774Z,0.90
2023-01-06T02:07:45.789Z,1.00
2023-01-06T02:08:45.801Z,0.90
2023-01-06T02:09:45.814Z,0.80
2023-01-06T02:10:45.829Z,0.80
2023-01-06T02:11:45.835Z,0.90
2023-01-06T02:12:45.849Z,0.90
2023-01-06T02:13:45.873Z,0.90
2023-01-06T02:14:45.928Z,0.80
2023-01-06T02:15:45.952Z,0.80
2023-01-06T02:16:45.914Z,0.70
2023-01-06T02:17:45.920Z,0.90
2023-01-06T02:18:45.944Z,0.90
2023-01-06T02:19:46.067Z,0.90
2023-01-06T02:20:45.969Z,0.80
2023-01-06T02:21:45.984Z,0.90
2023-01-06T02:22:45.989Z,1.00
2023-01-06T02:23:46.003Z,0.80
2023-01-06T02:24:46.025Z,1.00
2023-01-06T02:25:46.058Z,1.00
2023-01-06T02:26:46.053Z,1.00
2023-01-06T02:27:46.066Z,0.70
2023-01-06T02:28:46.073Z,0.80
2023-01-06T02:29:46.098Z,1.00
2023-01-06T02:30:46.098Z,1.00
2023-01-06T02:31:46.113Z,0.80
2023-01-06T02:32:46.164Z,0.90
2023-01-06T02:33:46.170Z,1.00
2023-01-06T02:34:46.359Z,1.00
2023-01-06T02:35:46.302Z,1.00
2023-01-06T02:36:46.194Z,1.00
2023-01-06T02:37:46.200Z,0.90
2023-01-06T02:38:46.212Z,1.00
2023-01-06T02:39:46.225Z,0.90
2023-01-06T02:40:46.248Z,1.10
2023-01-06T02:41:46.252Z,0.90
2023-01-06T02:42:46.267Z,1.00
2023-01-06T02:43:46.313Z,1.00
2023-01-06T02:44:46.336Z,0.90
2023-01-06T02:45:46.347Z,1.20
2023-01-06T02:46:46.363Z,0.90
2023-01-06T02:47:46.338Z,1.10
2023-01-06T02:48:46.352Z,1.10
2023-01-06T02:49:46.372Z,1.00
2023-01-06T02:50:46.376Z,1.00
2023-01-06T02:51:46.528Z,1.00
2023-01-06T02:52:46.411Z,1.00
2023-01-06T02:53:46.422Z,1.20
2023-01-06T02:54:46.441Z,1.10
2023-01-06T02:55:46.452Z,1.20
2023-01-06T02:56:46.473Z,1.10
2023-01-06T02:57:46.475Z,1.20
2023-01-06T02:58:46.496Z,1.20
2023-01-06T02:59:46.512Z,1.10
2023-01-06T03:00:46.519Z,1.10
2023-01-06T03:01:46.663Z,1.10
2023-01-06T03:02:46.553Z,1.10
2023-01-06T03:03:46.705Z,1.10
2023-01-06T03:04:46.599Z,1.00
2023-01-06T03:05:46.588Z,1.10
2023-01-06T03:06:46.614Z,1.20
2023-01-06T03:07:46.745Z,1.40
2023-01-06T03:08:46.656Z,1.20
2023-01-06T03:09:46.658Z,1.20
2023-01-06T03:10:46.657Z,1.10
2023-01-06T03:11:46.670Z,1.30
2023-01-06T03:12:46.683Z,1.30
2023-01-06T03:13:46.699Z,1.10
2023-01-06T03:14:46.718Z,1.30
2023-01-06T03:15:46.773Z,1.10
2023-01-06T03:16:46.747Z,1.40
2023-01-06T03:17:46.755Z,1.20
2023-01-06T03:18:46.778Z,1.30
2023-01-06T03:19:46.782Z,1.30
2023-01-06T03:20:46.804Z,1.30
2023-01-06T03:21:46.809Z,1.10
2023-01-06T03:22:46.832Z,1.30
2023-01-06T03:23:46.969Z,1.30
2023-01-06T03:24:46.858Z,1.30
2023-01-06T03:25:46.868Z,1.30
2023-01-06T03:26:46.879Z,1.30
2023-01-06T03:27:46.893Z,1.20
2023-01-06T03:28:46.937Z,1.40
2023-01-06T03:29:46.942Z,1.30
2023-01-06T03:30:46.936Z,1.50
2023-01-06T03:31:46.947Z,1.20
2023-01-06T03:32:46.978Z,1.30
2023-01-06T03:33:46.977Z,1.50
2023-01-06T03:34:46.999Z,1.20
2023-01-06T03:35:47.019Z,1.50
2023-01-06T03:36:47.018Z,1.30
2023-01-06T03:37:47.041Z,1.30
2023-01-06T03:38:47.045Z,1.60
2023-01-06T03:39:47.177Z,1.40
2023-01-06T03:40:47.082Z,1.50
2023-01-06T03:41:47.094Z,1.30
2023-01-06T03:42:47.114Z,1.20
2023-01-06T03:43:47.115Z,1.40
2023-01-06T03:44:47.129Z,1.40
2023-01-06T03:45:47.144Z,1.30
2023-01-06T03:46:47.243Z,1.40
2023-01-06T03:47:47.173Z,1.30
2023-01-06T03:48:47.193Z,1.40
2023-01-06T03:49:47.206Z,1.40
2023-01-06T03:50:47.245Z,1.40
2023-01-06T03:51:47.234Z,1.50
2023-01-06T03:52:47.243Z,1.40
2023-01-06T03:53:47.269Z,1.60
2023-01-06T03:54:47.272Z,1.50
2023-01-06T03:55:47.408Z,1.60
2023-01-06T03:56:47.306Z,1.40
2023-01-06T03:57:47.311Z,1.40
2023-01-06T03:58:47.326Z,1.40
2023-01-06T03:59:47.345Z,1.60
2023-01-06T04:00:47.404Z,1.40
2023-01-06T04:01:47.390Z,1.40
2023-01-06T04:02:47.397Z,1.60
2023-01-06T04:03:47.487Z,1.60
2023-01-06T04:04:47.413Z,1.40
2023-01-06T04:05:47.427Z,1.40
2023-01-06T04:06:47.443Z,1.60
2023-01-06T04:07:47.459Z,1.50
2023-01-06T04:08:47.463Z,1.20
2023-01-06T04:09:47.477Z,1.60
2023-01-06T04:10:47.506Z,1.60
2023-01-06T04:11:47.619Z,1.40
2023-01-06T04:12:47.519Z,1.60
2023-01-06T04:13:47.531Z,1.70
2023-01-06T04:14:47.558Z,1.50
2023-01-06T04:15:47.568Z,1.30
2023-01-06T04:16:47.683Z,1.50
2023-01-06T04:17:47.607Z,1.50
2023-01-06T04:18:47.623Z,1.40
2023-01-06T04:19:47.618Z,1.60
2023-01-06T04:20:47.634Z,1.40
2023-01-06T04:21:47.660Z,1.50
2023-01-06T04:22:47.676Z,1.30
2023-01-06T04:23:47.674Z,1.60
2023-01-06T04:24:47.684Z,1.60
2023-01-06T04:25:47.705Z,1.40
2023-01-06T04:26:47.715Z,1.50
2023-01-06T04:27:47.863Z,1.50
2023-01-06T04:28:47.754Z,1.50
2023-01-06T04:29:47.766Z,1.30
2023-01-06T04:30:47.767Z,1.50
2023-01-06T04:31:47.806Z,1.30
2023-01-06T04:32:47.804Z,1.50
2023-01-06T04:33:47.829Z,1.60
2023-01-06T04:34:47.828Z,1.40
2023-01-06T04:35:47.839Z,1.70
2023-01-06T04:36:47.852Z,1.70
2023-01-06T04:37:47.871Z,1.40
2023-01-06T04:38:47.884Z,1.50
2023-01-06T04:39:47.928Z,1.70
2023-01-06T04:40:47.914Z,1.50
2023-01-06T04:41:47.926Z,1.50
2023-01-06T04:42:47.932Z,1.30
2023-01-06T04:43:48.062Z,1.60
2023-01-06T04:44:47.961Z,1.50
2023-01-06T04:45:48.034Z,1.50
2023-01-06T04:46:47.992Z,1.70
2023-01-06T04:47:48.008Z,1.60
2023-01-06T04:48:48.018Z,1.40
2023-01-06T04:49:48.050Z,1.60
2023-01-06T04:50:48.045Z,1.40
2023-01-06T04:51:48.063Z,1.30
2023-01-06T04:52:48.090Z,1.30
2023-01-06T04:53:48.099Z,1.50
2023-01-06T04:54:48.101Z,1.50
2023-01-06T04:55:48.122Z,1.50
2023-01-06T04:56:48.143Z,1.60
2023-01-06T04:57:48.150Z,1.60
2023-01-06T04:58:48.158Z,1.50
2023-01-06T04:59:48.289Z,1.40
2023-01-06T05:00:48.207Z,1.50
2023-01-06T05:01:48.275Z,1.50
2023-01-06T05:02:48.217Z,1.50
2023-01-06T05:03:48.283Z,1.40
2023-01-06T05:04:48.336Z,1.40
2023-01-06T05:05:48.250Z,1.50
2023-01-06T05:06:49.275Z,1.20
2023-01-06T05:07:48.288Z,1.30
2023-01-06T05:08:48.298Z,1.20
2023-01-06T05:09:48.315Z,1.40
2023-01-06T05:10:48.335Z,1.40
2023-01-06T05:11:48.343Z,1.40
2023-01-06T05:12:48.352Z,1.50
2023-01-06T05:13:48.384Z,1.20
2023-01-06T05:14:48.377Z,1.30
2023-01-06T05:15:48.507Z,1.10
2023-01-06T05:16:48.414Z,1.30
2023-01-06T05:17:48.418Z,1.20
2023-01-06T05:18:48.440Z,1.60
2023-01-06T05:19:48.455Z,1.20
2023-01-06T05:20:48.458Z,1.30
2023-01-06T05:21:48.480Z,1.20
2023-01-06T05:22:48.487Z,1.30
2023-01-06T05:23:48.507Z,1.30
2023-01-06T05:24:48.523Z,1.40
2023-01-06T05:25:48.530Z,1.30
2023-01-06T05:26:48.543Z,1.10
2023-01-06T05:27:48.555Z,1.50
2023-01-06T05:28:48.577Z,1.20
2023-01-06T05:29:48.586Z,1.30
2023-01-06T05:30:48.603Z,1.30
2023-01-06T05:31:48.813Z,1.30
2023-01-06T05:32:48.636Z,1.40
2023-01-06T05:33:48.652Z,1.20
2023-01-06T05:34:48.666Z,1.20
2023-01-06T05:35:48.679Z,1.30
2023-01-06T05:36:48.697Z,1.10
2023-01-06T05:37:48.705Z,1.20
2023-01-06T05:38:48.707Z,1.20
2023-01-06T05:39:48.729Z,1.20
2023-01-06T05:40:48.736Z,1.30
2023-01-06T05:41:48.749Z,1.30
2023-01-06T05:42:48.768Z,1.10
2023-01-06T05:43:48.790Z,1.10
2023-01-06T05:44:48.793Z,1.10
2023-01-06T05:45:48.878Z,1.20
2023-01-06T05:46:48.824Z,1.10
2023-01-06T05:47:48.954Z,1.20
2023-01-06T05:48:48.853Z,1.20
2023-01-06T05:49:48.886Z,1.10
2023-01-06T05:50:48.879Z,1.30
2023-01-06T05:51:48.894Z,1.10
2023-01-06T05:52:48.907Z,1.10
2023-01-06T05:53:48.933Z,1.20
2023-01-06T05:54:48.928Z,1.10
2023-01-06T05:55:48.957Z,1.20
2023-01-06T05:56:48.957Z,1.10
2023-01-06T05:57:48.971Z,1.30
2023-01-06T05:58:48.998Z,1.10
2023-01-06T05:59:48.996Z,1.40
2023-01-06T06:00:49.018Z,1.20
2023-01-06T06:01:49.172Z,1.30
2023-01-06T06:02:49.045Z,1.10
2023-01-06T06:03:49.130Z,1.10
2023-01-06T06:04:49.073Z,1.10
2023-01-06T06:05:49.080Z,1.20
2023-01-06T06:06:49.112Z,1.20
2023-01-06T06:07:49.108Z,1.10
2023-01-06T06:08:49.134Z,1.20
2023-01-06T06:09:49.142Z,1.00
2023-01-06T06:10:49.150Z,1.00
2023-01-06T06:11:49.164Z,1.10
2023-01-06T06:12:49.184Z,1.10
2023-01-06T06:13:49.189Z,1.00
2023-01-06T06:14:49.203Z,1.00
2023-01-06T06:15:49.225Z,1.10
2023-01-06T06:16:49.346Z,1.20
2023-01-06T06:17:49.253Z,1.00
2023-01-06T06:18:49.266Z,1.20
2023-01-06T06:19:49.402Z,1.30
2023-01-06T06:20:49.286Z,1.00
2023-01-06T06:21:49.301Z,0.80
2023-01-06T06:22:49.324Z,1.00
2023-01-06T06:23:49.329Z,0.90
2023-01-06T06:24:49.346Z,1.10
2023-01-06T06:25:49.364Z,1.20
2023-01-06T06:26:49.372Z,1.10
2023-01-06T06:27:49.382Z,1.00
2023-01-06T06:28:49.399Z,1.20
2023-01-06T06:29:49.419Z,1.10
2023-01-06T06:30:49.435Z,1.10
2023-01-06T06:31:49.445Z,0.90
2023-01-06T06:32:49.450Z,1.00
2023-01-06T06:33:49.474Z,1.10
2023-01-06T06:34:49.487Z,1.10
2023-01-06T06:35:49.632Z,1.20
2023-01-06T06:36:49.507Z,1.10
2023-01-06T06:37:49.522Z,1.10
2023-01-06T06:38:49.535Z,1.10
2023-01-06T06:39:49.569Z,1.10
2023-01-06T06:40:49.595Z,0.90
2023-01-06T06:41:49.581Z,1.00
2023-01-06T06:42:49.591Z,0.90
2023-01-06T06:43:49.627Z,1.10
2023-01-06T06:44:52.002Z,1.10
2023-01-06T06:45:49.699Z,0.90
2023-01-06T06:46:49.644Z,1.00
2023-01-06T06:47:49.664Z,0.90
2023-01-06T06:48:49.692Z,1.00
2023-01-06T06:49:49.687Z,0.90
2023-01-06T06:50:49.707Z,1.00
2023-01-06T06:51:49.824Z,1.00
2023-01-06T06:52:49.730Z,1.00
2023-01-06T06:53:49.743Z,1.20
2023-01-06T06:54:49.755Z,1.00
2023-01-06T06:55:49.778Z,1.10
2023-01-06T06:56:49.789Z,1.00
2023-01-06T06:57:49.794Z,1.00
2023-01-06T06:58:49.830Z,1.00
2023-01-06T06:59:49.831Z,1.20
2023-01-06T07:00:49.842Z,1.00
2023-01-06T07:01:50.021Z,0.90
2023-01-06T07:02:49.871Z,1.00
2023-01-06T07:03:49.878Z,1.20
2023-01-06T07:04:49.974Z,1.00
2023-01-06T07:05:49.903Z,0.90
2023-01-06T07:06:49.918Z,1.00
2023-01-06T07:07:50.054Z,0.80
2023-01-06T07:08:49.966Z,1.00
2023-01-06T07:09:49.963Z,1.00
2023-01-06T07:10:49.981Z,0.90
2023-01-06T07:11:49.997Z,0.90
2023-01-06T07:12:49.999Z,0.70
2023-01-06T07:13:50.033Z,1.00
2023-01-06T07:14:50.034Z,1.00
2023-01-06T07:15:50.094Z,1.00
2023-01-06T07:16:50.060Z,1.00
2023-01-06T07:17:50.075Z,0.90
2023-01-06T07:18:50.082Z,1.30
2023-01-06T07:19:50.103Z,0.80
2023-01-06T07:20:50.119Z,1.00
2023-01-06T07:21:50.125Z,0.90
2023-01-06T07:22:50.135Z,0.80
2023-01-06T07:23:50.268Z,1.00
2023-01-06T07:24:50.168Z,0.90
2023-01-06T07:25:50.187Z,0.90
2023-01-06T07:26:50.192Z,0.80
2023-01-06T07:27:50.210Z,1.00
2023-01-06T07:28:50.223Z,0.90
2023-01-06T07:29:50.241Z,0.80
2023-01-06T07:30:50.305Z,0.90
2023-01-06T07:31:50.267Z,1.20
2023-01-06T07:32:50.281Z,1.00
2023-01-06T07:33:50.294Z,0.70
2023-01-06T07:34:50.314Z,0.80
2023-01-06T07:35:50.328Z,0.80
2023-01-06T07:36:50.331Z,0.80
2023-01-06T07:37:50.350Z,0.90
2023-01-06T07:38:50.363Z,0.90
2023-01-06T07:39:50.489Z,0.70
2023-01-06T07:40:50.391Z,0.80
2023-01-06T07:41:50.406Z,1.00
2023-01-06T07:42:50.418Z,0.80
2023-01-06T07:43:50.431Z,0.90
2023-01-06T07:44:50.437Z,0.80
2023-01-06T07:45:50.478Z,0.90
2023-01-06T07:46:50.467Z,0.80
2023-01-06T07:47:50.479Z,0.80
2023-01-06T07:48:50.500Z,0.90
2023-01-06T07:49:50.513Z,0.90
2023-01-06T07:50:50.548Z,1.00
2023-01-06T07:51:50.549Z,0.90
2023-01-06T07:52:50.548Z,0.90
2023-01-06T07:53:50.570Z,1.00
2023-01-06T07:54:50.581Z,0.90
2023-01-06T07:55:50.715Z,0.90
2023-01-06T07:56:50.610Z,0.70
2023-01-06T07:57:50.629Z,0.70
2023-01-06T07:58:50.639Z,0.90
2023-01-06T07:59:50.644Z,0.90
2023-01-06T08:00:50.669Z,0.90
2023-01-06T08:01:50.758Z,1.00
2023-01-06T08:02:50.698Z,1.00
2023-01-06T08:03:50.704Z,0.90
2023-01-06T08:04:50.712Z,0.60
2023-01-06T08:05:50.747Z,0.90
2023-01-06T08:06:50.746Z,0.90
2023-01-06T08:07:50.752Z,0.60
2023-01-06T08:08:50.767Z,0.80
2023-01-06T08:09:50.779Z,1.00
2023-01-06T08:10:50.795Z,1.10
2023-01-06T08:11:50.963Z,0.90
2023-01-06T08:12:50.829Z,0.90
2023-01-06T08:13:50.835Z,0.80
2023-01-06T08:14:50.845Z,0.80
2023-01-06T08:15:50.892Z,0.70
2023-01-06T08:16:50.884Z,0.90
2023-01-06T08:17:50.899Z,0.90
2023-01-06T08:18:50.926Z,0.70
2023-01-06T08:19:50.914Z,0.80
2023-01-06T08:20:50.937Z,0.90
2023-01-06T08:21:50.951Z,0.80
2023-01-06T08:22:50.956Z,0.80
2023-01-06T08:23:50.970Z,0.80
2023-01-06T08:24:50.992Z,0.80
2023-01-06T08:25:50.996Z,1.00
2023-01-06T08:26:51.019Z,0.70
2023-01-06T08:27:51.143Z,0.80
2023-01-06T08:28:51.040Z,0.80
2023-01-06T08:29:51.051Z,0.80
2023-01-06T08:30:51.086Z,0.70
2023-01-06T08:31:54.738Z,0.90
2023-01-06T08:32:51.094Z,0.70
2023-01-06T08:33:51.113Z,0.70
2023-01-06T08:34:51.125Z,0.70
2023-01-06T08:35:51.141Z,0.70
2023-01-06T08:36:51.152Z,0.90
2023-01-06T08:37:51.167Z,0.80
2023-01-06T08:38:51.179Z,0.70
2023-01-06T08:39:51.200Z,0.80
2023-01-06T08:40:51.208Z,0.70
2023-01-06T08:41:51.216Z,0.70
2023-01-06T08:42:51.231Z,0.90
2023-01-06T08:43:51.366Z,0.70
2023-01-06T08:44:51.264Z,0.60
2023-01-06T08:45:51.270Z,0.90
2023-01-06T08:46:51.284Z,0.70
2023-01-06T08:47:51.322Z,0.90
2023-01-06T08:48:51.314Z,0.60
2023-01-06T08:49:51.328Z,0.70
2023-01-06T08:50:51.337Z,0.80
2023-01-06T08:51:51.359Z,0.90
2023-01-06T08:52:51.379Z,0.80
2023-01-06T08:53:51.418Z,0.80
2023-01-06T08:54:51.399Z,0.90
2023-01-06T08:55:51.412Z,0.60
2023-01-06T08:56:51.428Z,0.80
2023-01-06T08:57:53.873Z,0.80
2023-01-06T08:58:51.452Z,0.70
2023-01-06T08:59:51.579Z,0.70
2023-01-06T09:00:51.474Z,1.00
2023-01-06T09:01:51.744Z,0.70
2023-01-06T09:02:51.509Z,0.80
2023-01-06T09:03:51.520Z,0.70
2023-01-06T09:04:51.558Z,0.80
2023-01-06T09:05:51.549Z,0.80
2023-01-06T09:06:51.563Z,0.80
2023-01-06T09:07:51.568Z,0.80
2023-01-06T09:08:51.590Z,0.80
2023-01-06T09:09:51.603Z,0.80
2023-01-06T09:10:51.624Z,0.70
2023-01-06T09:11:51.628Z,0.70
2023-01-06T09:12:51.643Z,0.80
2023-01-06T09:13:51.663Z,0.60
2023-01-06T09:14:51.668Z,0.80
2023-01-06T09:15:51.869Z,0.80
2023-01-06T09:16:51.695Z,1.00
2023-01-06T09:17:51.722Z,0.70
2023-01-06T09:18:51.716Z,0.80
2023-01-06T09:19:51.736Z,0.90
2023-01-06T09:20:51.754Z,0.70
2023-01-06T09:21:51.763Z,0.80
2023-01-06T09:22:51.773Z,0.80
2023-01-06T09:23:51.785Z,0.90
2023-01-06T09:24:52.035Z,1.00
2023-01-06T09:25:51.839Z,0.80
2023-01-06T09:26:51.825Z,0.90
2023-01-06T09:27:51.848Z,0.80
2023-01-06T09:28:51.861Z,0.80
2023-01-06T09:29:51.872Z,1.00
2023-01-06T09:30:51.929Z,1.00
2023-01-06T09:31:52.013Z,0.80
2023-01-06T09:32:51.919Z,0.90
2023-01-06T09:33:51.935Z,0.80
2023-01-06T09:34:51.936Z,0.80
2023-01-06T09:35:51.959Z,0.90
2023-01-06T09:36:51.971Z,0.70
2023-01-06T09:37:51.988Z,0.90
2023-01-06T09:38:51.998Z,0.70
2023-01-06T09:39:52.014Z,0.90
2023-01-06T09:40:52.017Z,0.80
2023-01-06T09:41:52.030Z,0.70
2023-01-06T09:42:52.057Z,1.00
2023-01-06T09:43:52.065Z,0.90
2023-01-06T09:44:52.071Z,0.80
2023-01-06T09:45:52.092Z,0.90
2023-01-06T09:46:52.216Z,0.80
2023-01-06T09:47:52.241Z,0.80
2023-01-06T09:48:52.137Z,0.80
2023-01-06T09:49:52.160Z,0.70
2023-01-06T09:50:52.160Z,0.70
2023-01-06T09:51:52.171Z,1.00
2023-01-06T09:52:52.187Z,0.70
2023-01-06T09:53:52.199Z,0.80
2023-01-06T09:54:52.213Z,0.90
2023-01-06T09:55:52.258Z,0.70
2023-01-06T09:56:52.234Z,0.80
2023-01-06T09:57:52.266Z,0.90
2023-01-06T09:58:52.261Z,0.80
2023-01-06T09:59:52.280Z,0.80
2023-01-06T10:00:52.299Z,0.90
2023-01-06T10:01:52.402Z,0.80
2023-01-06T10:02:52.315Z,0.60
2023-01-06T10:03:52.506Z,0.90
2023-01-06T10:04:52.351Z,0.70
2023-01-06T10:05:52.437Z,0.80
2023-01-06T10:06:52.378Z,0.80
2023-01-06T10:07:52.389Z,0.80
2023-01-06T10:08:52.395Z,0.80
2023-01-06T10:09:52.416Z,0.70
2023-01-06T10:10:52.424Z,0.90
2023-01-06T10:11:52.438Z,0.90
2023-01-06T10:12:52.454Z,1.00
2023-01-06T10:13:52.465Z,0.90
2023-01-06T10:14:52.487Z,0.80
2023-01-06T10:15:52.548Z,1.10
2023-01-06T10:16:52.504Z,0.90
2023-01-06T10:17:52.529Z,0.90
2023-01-06T10:18:52.537Z,0.80
2023-01-06T10:19:52.570Z,1.00
2023-01-06T10:20:52.564Z,0.90
2023-01-06T10:21:52.580Z,0.80
2023-01-06T10:22:52.593Z,0.90
2023-01-06T10:23:52.608Z,0.80
2023-01-06T10:24:52.622Z,0.80
2023-01-06T10:25:52.626Z,1.00
2023-01-06T10:26:52.644Z,0.80
2023-01-06T10:27:52.660Z,0.90
2023-01-06T10:28:52.667Z,0.90
2023-01-06T10:29:52.689Z,0.90
2023-01-06T10:30:52.724Z,1.00
2023-01-06T10:31:52.716Z,1.00
2023-01-06T10:32:52.719Z,0.80
2023-01-06T10:33:52.756Z,1.10
2023-01-06T10:34:52.755Z,0.80
2023-01-06T10:35:52.894Z,0.90
2023-01-06T10:36:52.777Z,0.90
2023-01-06T10:37:52.803Z,1.30
2023-01-06T10:38:52.808Z,0.90
2023-01-06T10:39:52.816Z,0.90
2023-01-06T10:40:52.842Z,0.90
2023-01-06T10:41:52.846Z,0.70
2023-01-06T10:42:52.865Z,1.10
2023-01-06T10:43:52.868Z,1.10
2023-01-06T10:44:52.883Z,0.80
2023-01-06T10:45:52.896Z,1.00
2023-01-06T10:46:52.977Z,1.10
2023-01-06T10:47:52.927Z,0.90
2023-01-06T10:48:52.951Z,0.90
2023-01-06T10:49:52.963Z,1.00
2023-01-06T10:50:52.973Z,0.90
2023-01-06T10:51:53.092Z,1.00
2023-01-06T10:52:53.002Z,1.20
2023-01-06T10:53:53.021Z,1.10
2023-01-06T10:54:53.044Z,0.90
2023-01-06T10:55:53.067Z,1.00
2023-01-06T10:56:53.052Z,0.90
2023-01-06T10:57:53.069Z,1.00
2023-01-06T10:58:53.074Z,0.90
2023-01-06T10:59:53.096Z,1.00
2023-01-06T11:00:53.147Z,1.10
2023-01-06T11:01:53.225Z,1.00
2023-01-06T11:02:53.251Z,1.00
2023-01-06T11:03:53.140Z,1.00
2023-01-06T11:04:53.159Z,1.00
2023-01-06T11:05:53.168Z,1.00
2023-01-06T11:06:53.187Z,1.00
2023-01-06T11:07:53.266Z,1.00
2023-01-06T11:08:53.217Z,0.90
2023-01-06T11:09:53.223Z,1.10
2023-01-06T11:10:53.238Z,1.10
2023-01-06T11:11:53.259Z,1.10
2023-01-06T11:12:53.274Z,1.00
2023-01-06T11:13:53.276Z,1.00
2023-01-06T11:16:19.151Z,1.10
2023-01-06T11:17:19.125Z,1.10
2023-01-06T11:18:19.137Z,1.10
2023-01-06T11:19:19.145Z,1.10
2023-01-06T11:20:19.159Z,1.00
2023-01-06T11:21:19.184Z,1.10
2023-01-06T11:22:19.487Z,1.20
2023-01-06T11:23:19.319Z,0.90
2023-01-06T11:24:19.211Z,1.00
2023-01-06T11:25:19.238Z,1.10
2023-01-06T11:26:19.239Z,1.00
2023-01-06T11:27:19.257Z,1.00
2023-01-06T11:28:19.272Z,1.30
2023-01-06T11:29:19.291Z,0.90
2023-01-06T11:30:19.292Z,0.90
2023-01-06T11:31:19.375Z,1.00
2023-01-06T11:32:19.324Z,1.00
2023-01-06T11:33:19.334Z,1.00
2023-01-06T11:34:19.351Z,1.10
2023-01-06T11:35:19.361Z,1.00
2023-01-06T11:36:19.381Z,1.00
2023-01-06T11:37:19.389Z,1.00
2023-01-06T11:38:19.404Z,1.20
2023-01-06T11:39:19.533Z,1.00
2023-01-06T11:40:19.477Z,1.10
2023-01-06T11:41:19.442Z,0.90
2023-01-06T11:42:19.461Z,1.00
2023-01-06T11:43:19.503Z,0.90
2023-01-06T11:44:19.497Z,1.10
2023-01-06T11:45:19.505Z,1.00
2023-01-06T11:46:19.584Z,1.00
2023-01-06T11:47:19.534Z,1.10
2023-01-06T11:48:19.546Z,0.70
2023-01-06T11:49:20.408Z,1.10
2023-01-06T11:50:19.584Z,0.90
2023-01-06T11:51:19.585Z,0.80
2023-01-06T11:52:19.621Z,0.80
2023-01-06T11:53:19.620Z,0.90
2023-01-06T11:54:19.625Z,0.90
2023-01-06T11:55:19.752Z,0.90
2023-01-06T11:56:19.653Z,0.90
2023-01-06T11:57:19.671Z,0.90
2023-01-06T11:58:19.671Z,1.00
2023-01-06T11:59:19.693Z,0.90
2023-01-06T12:00:19.707Z,0.90
2023-01-06T12:01:19.891Z,0.90
2023-01-06T12:02:19.776Z,1.20
2023-01-06T12:03:19.891Z,1.00
2023-01-06T12:04:19.806Z,0.90
2023-01-06T12:05:19.798Z,0.90
2023-01-06T12:06:19.803Z,0.80
2023-01-06T12:07:19.797Z,1.00
2023-01-06T12:08:19.839Z,0.90
2023-01-06T12:09:19.828Z,0.90
2023-01-06T12:10:19.852Z,0.90
2023-01-06T12:11:19.964Z,0.90
2023-01-06T12:12:19.865Z,1.10
2023-01-06T12:13:19.874Z,0.90
2023-01-06T12:14:28.527Z,0.80
2023-01-06T12:15:19.927Z,0.90
2023-01-06T12:16:20.069Z,1.00
2023-01-06T12:17:20.131Z,0.80
2023-01-06T12:18:20.143Z,1.20
2023-01-06T12:19:19.968Z,0.90
2023-01-06T12:20:19.977Z,1.00
2023-01-06T12:21:20.002Z,0.80
2023-01-06T12:22:20.009Z,1.00
2023-01-06T12:23:20.051Z,1.00
2023-01-06T12:24:20.038Z,0.80
2023-01-06T12:25:20.043Z,0.90
2023-01-06T12:26:20.063Z,0.90
2023-01-06T12:27:20.182Z,0.90
2023-01-06T12:28:20.079Z,0.80
2023-01-06T12:29:20.097Z,0.90
2023-01-06T12:30:20.115Z,1.00
2023-01-06T12:31:20.123Z,1.00
2023-01-06T12:32:20.129Z,0.80
2023-01-06T12:33:20.144Z,0.90
2023-01-06T12:34:20.167Z,1.00
2023-01-06T12:35:20.171Z,0.80
2023-01-06T12:36:20.197Z,1.00
2023-01-06T12:37:20.212Z,1.00
2023-01-06T12:38:20.219Z,0.70
2023-01-06T12:39:20.232Z,1.10
2023-01-06T12:40:20.244Z,1.00
2023-01-06T12:41:20.256Z,0.80
2023-01-06T12:42:20.269Z,1.10
2023-01-06T12:43:20.402Z,0.90
2023-01-06T12:44:20.300Z,1.00
2023-01-06T12:45:20.311Z,0.90
2023-01-06T12:46:20.382Z,0.90
2023-01-06T12:47:20.328Z,0.90
2023-01-06T12:48:20.346Z,0.80
2023-01-06T12:49:20.365Z,0.90
2023-01-06T12:50:20.381Z,0.90
2023-01-06T12:51:20.383Z,1.00
2023-01-06T12:52:20.411Z,0.90
2023-01-06T12:53:21.388Z,1.00
2023-01-06T12:54:20.431Z,0.90
2023-01-06T12:55:20.443Z,1.10
2023-01-06T12:56:20.471Z,0.90
2023-01-06T12:57:20.467Z,1.00
2023-01-06T12:58:20.486Z,0.90
2023-01-06T12:59:20.615Z,0.90
2023-01-06T13:00:20.513Z,1.10
2023-01-06T13:01:20.684Z,1.00
2023-01-06T13:02:20.685Z,1.00
2023-01-06T13:03:20.555Z,0.80
2023-01-06T13:04:20.602Z,1.00
2023-01-06T13:05:20.585Z,0.80
2023-01-06T13:06:20.608Z,1.00
2023-01-06T13:07:20.600Z,1.00
2023-01-06T13:08:20.635Z,1.10
2023-01-06T13:09:20.637Z,0.90
2023-01-06T13:10:20.667Z,0.90
2023-01-06T13:11:20.662Z,1.40
2023-01-06T13:12:20.671Z,1.00
2023-01-06T13:13:20.695Z,0.70
2023-01-06T13:14:20.696Z,0.90
2023-01-06T13:15:20.829Z,0.80
2023-01-06T13:16:20.756Z,0.90
2023-01-06T13:17:20.734Z,1.00
2023-01-06T13:18:20.757Z,1.20
2023-01-06T13:19:20.769Z,1.20
2023-01-06T13:20:20.774Z,1.00